sensor_id;sensor_type;location;lat;lon;timestamp;P1;durP1;ratioP1;P2;durP2;ratioP2
75937;SDS011;64615;32.062;34.834;2022-12-29T00:01:54;13.38;;;8.20;;
75937;SDS011;64615;32.062;34.834;2022-12-29T00:04:21;14.05;;;8.02;;
75937;SDS011;64615;32.062;34.834;2022-12-29T00:06:47;16.75;;;8.45;;
75937;SDS011;64615;32.062;34.834;2022-12-29T00:09:13;13.98;;;8.30;;
75937;SDS011;64615;32.062;34.834;2022-12-29T02:43:54;12.02;;;6.85;;
75937;SDS011;64615;32.062;34.834;2022-12-29T02:46:44;14.27;;;7.70;;
75937;SDS011;64615;32.062;34.834;2022-12-29T02:49:25;14.35;;;7.30;;
75937;SDS011;64615;32.062;34.834;2022-12-29T02:52:02;11.63;;;6.90;;
75937;SDS011;64615;32.062;34.834;2022-12-29T02:54:30;14.25;;;7.50;;
75937;SDS011;64615;32.062;34.834;2022-12-29T02:57:12;11.13;;;7.00;;
75937;SDS011;64615;32.062;34.834;2022-12-29T02:59:41;13.32;;;7.68;;
75937;SDS011;64615;32.062;34.834;2022-12-29T03:10:12;12.52;;;7.18;;
75937;SDS011;64615;32.062;34.834;2022-12-29T03:21:16;14.02;;;7.80;;
75937;SDS011;64615;32.062;34.834;2022-12-29T03:24:12;12.93;;;7.57;;
75937;SDS011;64615;32.062;34.834;2022-12-29T03:26:38;13.68;;;7.60;;
75937;SDS011;64615;32.062;34.834;2022-12-29T03:29:06;12.48;;;7.15;;
75937;SDS011;64615;32.062;34.834;2022-12-29T03:31:35;14.40;;;7.50;;
75937;SDS011;64615;32.062;34.834;2022-12-29T03:34:02;13.48;;;7.25;;
75937;SDS011;64615;32.062;34.834;2022-12-29T04:28:04;11.27;;;6.80;;
75937;SDS011;64615;32.062;34.834;2022-12-29T04:30:55;13.75;;;6.88;;
75937;SDS011;64615;32.062;34.834;2022-12-29T04:33:46;14.02;;;6.90;;
75937;SDS011;64615;32.062;34.834;2022-12-29T04:36:37;12.65;;;6.95;;
75937;SDS011;64615;32.062;34.834;2022-12-29T04:39:28;16.10;;;7.40;;
75937;SDS011;64615;32.062;34.834;2022-12-29T04:42:19;12.82;;;7.47;;
75937;SDS011;64615;32.062;34.834;2022-12-29T04:45:10;21.98;;;7.68;;
75937;SDS011;64615;32.062;34.834;2022-12-29T04:48:01;19.02;;;7.40;;
75937;SDS011;64615;32.062;34.834;2022-12-29T04:50:52;16.05;;;7.20;;
75937;SDS011;64615;32.062;34.834;2022-12-29T04:53:43;18.90;;;7.70;;
75937;SDS011;64615;32.062;34.834;2022-12-29T04:56:34;17.33;;;7.80;;
75937;SDS011;64615;32.062;34.834;2022-12-29T04:59:25;19.10;;;7.53;;
75937;SDS011;64615;32.062;34.834;2022-12-29T05:02:16;17.45;;;7.75;;
75937;SDS011;64615;32.062;34.834;2022-12-29T05:05:07;20.95;;;8.05;;
75937;SDS011;64615;32.062;34.834;2022-12-29T05:07:58;17.60;;;8.18;;
75937;SDS011;64615;32.062;34.834;2022-12-29T05:10:50;22.30;;;8.23;;
75937;SDS011;64615;32.062;34.834;2022-12-29T05:13:44;20.77;;;8.57;;
75937;SDS011;64615;32.062;34.834;2022-12-29T05:16:35;20.08;;;8.93;;
75937;SDS011;64615;32.062;34.834;2022-12-29T05:36:38;32.70;;;12.35;;
75937;SDS011;64615;32.062;34.834;2022-12-29T05:39:04;34.08;;;11.55;;
75937;SDS011;64615;32.062;34.834;2022-12-29T05:41:30;35.85;;;11.35;;
75937;SDS011;64615;32.062;34.834;2022-12-29T05:43:56;34.47;;;12.15;;
75937;SDS011;64615;32.062;34.834;2022-12-29T05:46:21;31.48;;;11.25;;
75937;SDS011;64615;32.062;34.834;2022-12-29T05:48:47;35.58;;;11.65;;
75937;SDS011;64615;32.062;34.834;2022-12-29T05:51:12;31.05;;;11.48;;
75937;SDS011;64615;32.062;34.834;2022-12-29T05:53:38;28.92;;;10.93;;
75937;SDS011;64615;32.062;34.834;2022-12-29T05:56:04;23.98;;;10.65;;
75937;SDS011;64615;32.062;34.834;2022-12-29T05:58:30;31.98;;;11.45;;
75937;SDS011;64615;32.062;34.834;2022-12-29T06:00:55;22.60;;;10.63;;
75937;SDS011;64615;32.062;34.834;2022-12-29T06:03:21;24.48;;;9.80;;
75937;SDS011;64615;32.062;34.834;2022-12-29T06:05:47;27.95;;;10.23;;
75937;SDS011;64615;32.062;34.834;2022-12-29T06:08:12;24.40;;;9.65;;
75937;SDS011;64615;32.062;34.834;2022-12-29T06:10:38;33.55;;;10.63;;
75937;SDS011;64615;32.062;34.834;2022-12-29T06:13:04;26.92;;;9.43;;
75937;SDS011;64615;32.062;34.834;2022-12-29T06:15:33;25.98;;;9.90;;
75937;SDS011;64615;32.062;34.834;2022-12-29T06:17:59;21.95;;;10.45;;
75937;SDS011;64615;32.062;34.834;2022-12-29T06:20:25;26.85;;;10.10;;
75937;SDS011;64615;32.062;34.834;2022-12-29T06:22:51;31.50;;;11.00;;
75937;SDS011;64615;32.062;34.834;2022-12-29T06:25:17;19.70;;;10.07;;
75937;SDS011;64615;32.062;34.834;2022-12-29T06:27:43;21.45;;;9.68;;
75937;SDS011;64615;32.062;34.834;2022-12-29T06:30:09;27.55;;;10.23;;
75937;SDS011;64615;32.062;34.834;2022-12-29T07:30:45;26.05;;;10.30;;
75937;SDS011;64615;32.062;34.834;2022-12-29T07:33:11;27.55;;;11.07;;
75937;SDS011;64615;32.062;34.834;2022-12-29T07:35:37;35.17;;;17.20;;
75937;SDS011;64615;32.062;34.834;2022-12-29T07:38:02;31.63;;;16.65;;
75937;SDS011;64615;32.062;34.834;2022-12-29T07:40:28;25.58;;;16.70;;
75937;SDS011;64615;32.062;34.834;2022-12-29T07:42:53;34.67;;;16.95;;
75937;SDS011;64615;32.062;34.834;2022-12-29T07:45:19;32.05;;;16.00;;
75937;SDS011;64615;32.062;34.834;2022-12-29T07:47:47;30.75;;;16.23;;
75937;SDS011;64615;32.062;34.834;2022-12-29T07:50:14;28.33;;;15.20;;
75937;SDS011;64615;32.062;34.834;2022-12-29T07:52:39;29.45;;;15.73;;
75937;SDS011;64615;32.062;34.834;2022-12-29T08:37:14;14.00;;;7.25;;
75937;SDS011;64615;32.062;34.834;2022-12-29T08:39:40;17.02;;;7.82;;
75937;SDS011;64615;32.062;34.834;2022-12-29T08:42:06;14.88;;;7.80;;
75937;SDS011;64615;32.062;34.834;2022-12-29T08:44:31;14.45;;;7.85;;
75937;SDS011;64615;32.062;34.834;2022-12-29T08:46:57;11.27;;;6.47;;
75937;SDS011;64615;32.062;34.834;2022-12-29T08:49:22;12.35;;;6.85;;
75937;SDS011;64615;32.062;34.834;2022-12-29T08:51:48;12.55;;;7.20;;
75937;SDS011;64615;32.062;34.834;2022-12-29T08:54:13;13.00;;;7.30;;
75937;SDS011;64615;32.062;34.834;2022-12-29T08:56:39;12.82;;;7.00;;
75937;SDS011;64615;32.062;34.834;2022-12-29T08:59:05;14.05;;;7.07;;
75937;SDS011;64615;32.062;34.834;2022-12-29T09:01:30;12.35;;;6.85;;
75937;SDS011;64615;32.062;34.834;2022-12-29T09:03:56;14.90;;;7.50;;
75937;SDS011;64615;32.062;34.834;2022-12-29T09:06:22;14.80;;;7.95;;
75937;SDS011;64615;32.062;34.834;2022-12-29T09:08:48;16.77;;;8.13;;
75937;SDS011;64615;32.062;34.834;2022-12-29T09:11:17;14.55;;;7.22;;
75937;SDS011;64615;32.062;34.834;2022-12-29T09:13:45;12.55;;;6.60;;
75937;SDS011;64615;32.062;34.834;2022-12-29T09:16:11;11.25;;;7.07;;
75937;SDS011;64615;32.062;34.834;2022-12-29T09:18:37;12.57;;;6.63;;
75937;SDS011;64615;32.062;34.834;2022-12-29T09:21:04;14.18;;;6.78;;
75937;SDS011;64615;32.062;34.834;2022-12-29T09:23:30;17.55;;;7.20;;
75937;SDS011;64615;32.062;34.834;2022-12-29T10:36:18;10.25;;;5.63;;
75937;SDS011;64615;32.062;34.834;2022-12-29T10:42:25;9.75;;;5.65;;
75937;SDS011;64615;32.062;34.834;2022-12-29T10:45:16;12.30;;;5.88;;
75937;SDS011;64615;32.062;34.834;2022-12-29T10:48:11;9.52;;;5.78;;
75937;SDS011;64615;32.062;34.834;2022-12-29T10:51:29;10.98;;;5.90;;
75937;SDS011;64615;32.062;34.834;2022-12-29T10:57:27;9.07;;;5.65;;
75937;SDS011;64615;32.062;34.834;2022-12-29T11:00:19;10.70;;;5.60;;
75937;SDS011;64615;32.062;34.834;2022-12-29T11:06:35;12.27;;;6.40;;
75937;SDS011;64615;32.062;34.834;2022-12-29T11:09:27;15.68;;;7.65;;
75937;SDS011;64615;32.062;34.834;2022-12-29T11:15:11;20.63;;;9.68;;
75937;SDS011;64615;32.062;34.834;2022-12-29T11:18:07;18.85;;;10.77;;
75937;SDS011;64615;32.062;34.834;2022-12-29T11:21:52;26.27;;;13.27;;
75937;SDS011;64615;32.062;34.834;2022-12-29T11:24:25;24.35;;;12.77;;
75937;SDS011;64615;32.062;34.834;2022-12-29T11:27:19;22.30;;;13.13;;
75937;SDS011;64615;32.062;34.834;2022-12-29T11:30:24;32.10;;;12.90;;
75937;SDS011;64615;32.062;34.834;2022-12-29T11:33:17;26.85;;;12.35;;
75937;SDS011;64615;32.062;34.834;2022-12-29T14:07:45;18.65;;;8.98;;
75937;SDS011;64615;32.062;34.834;2022-12-29T14:10:32;17.80;;;8.93;;
75937;SDS011;64615;32.062;34.834;2022-12-29T14:15:44;20.50;;;8.65;;
75937;SDS011;64615;32.062;34.834;2022-12-29T14:18:19;20.90;;;8.73;;
75937;SDS011;64615;32.062;34.834;2022-12-29T14:20:49;20.05;;;8.63;;
75937;SDS011;64615;32.062;34.834;2022-12-29T14:23:26;19.08;;;7.80;;
75937;SDS011;64615;32.062;34.834;2022-12-29T15:02:14;33.95;;;11.18;;
75937;SDS011;64615;32.062;34.834;2022-12-29T15:04:44;26.33;;;12.07;;
75937;SDS011;64615;32.062;34.834;2022-12-29T15:07:11;27.45;;;12.23;;
75937;SDS011;64615;32.062;34.834;2022-12-29T15:10:20;22.35;;;12.57;;
75937;SDS011;64615;32.062;34.834;2022-12-29T15:12:46;29.55;;;13.05;;
75937;SDS011;64615;32.062;34.834;2022-12-29T15:15:18;23.50;;;12.23;;
75937;SDS011;64615;32.062;34.834;2022-12-29T15:17:51;24.98;;;12.25;;
75937;SDS011;64615;32.062;34.834;2022-12-29T15:20:21;26.75;;;11.95;;
75937;SDS011;64615;32.062;34.834;2022-12-29T15:22:54;19.85;;;11.82;;
75937;SDS011;64615;32.062;34.834;2022-12-29T15:25:22;25.45;;;12.30;;
75937;SDS011;64615;32.062;34.834;2022-12-29T15:27:51;21.80;;;12.57;;
75937;SDS011;64615;32.062;34.834;2022-12-29T15:30:24;25.63;;;11.95;;
75937;SDS011;64615;32.062;34.834;2022-12-29T15:32:50;22.08;;;11.48;;
75937;SDS011;64615;32.062;34.834;2022-12-29T15:35:27;28.13;;;12.30;;
75937;SDS011;64615;32.062;34.834;2022-12-29T15:38:12;20.80;;;11.82;;
75937;SDS011;64615;32.062;34.834;2022-12-29T15:40:40;22.65;;;11.82;;
75937;SDS011;64615;32.062;34.834;2022-12-29T15:46:14;20.45;;;11.52;;
75937;SDS011;64615;32.062;34.834;2022-12-29T15:48:40;24.63;;;10.73;;
75937;SDS011;64615;32.062;34.834;2022-12-29T15:51:28;26.38;;;10.95;;
75937;SDS011;64615;32.062;34.834;2022-12-29T15:53:58;21.13;;;9.75;;
75937;SDS011;64615;32.062;34.834;2022-12-29T15:56:24;20.98;;;9.98;;
75937;SDS011;64615;32.062;34.834;2022-12-29T15:58:54;18.55;;;9.23;;
75937;SDS011;64615;32.062;34.834;2022-12-29T16:32:28;49.75;;;9.75;;
75937;SDS011;64615;32.062;34.834;2022-12-29T16:37:32;36.38;;;8.27;;
75937;SDS011;64615;32.062;34.834;2022-12-29T16:42:48;42.05;;;8.50;;
75937;SDS011;64615;32.062;34.834;2022-12-29T16:48:29;33.08;;;9.45;;
75937;SDS011;64615;32.062;34.834;2022-12-29T16:50:33;27.40;;;8.65;;
75937;SDS011;64615;32.062;34.834;2022-12-29T16:53:00;35.40;;;9.70;;
75937;SDS011;64615;32.062;34.834;2022-12-29T16:55:28;26.63;;;8.75;;
75937;SDS011;64615;32.062;34.834;2022-12-29T16:57:54;23.73;;;8.98;;
75937;SDS011;64615;32.062;34.834;2022-12-29T17:00:28;24.50;;;9.07;;
75937;SDS011;64615;32.062;34.834;2022-12-29T17:02:59;29.83;;;8.95;;
75937;SDS011;64615;32.062;34.834;2022-12-29T17:05:26;25.45;;;9.82;;
75937;SDS011;64615;32.062;34.834;2022-12-29T17:07:52;23.05;;;8.07;;
75937;SDS011;64615;32.062;34.834;2022-12-29T17:10:18;24.98;;;9.15;;
75937;SDS011;64615;32.062;34.834;2022-12-29T17:12:44;28.80;;;8.52;;
75937;SDS011;64615;32.062;34.834;2022-12-29T17:51:02;20.42;;;8.50;;
75937;SDS011;64615;32.062;34.834;2022-12-29T17:53:53;19.10;;;8.23;;
75937;SDS011;64615;32.062;34.834;2022-12-29T17:56:44;20.25;;;8.77;;
75937;SDS011;64615;32.062;34.834;2022-12-29T17:59:35;21.27;;;8.77;;
75937;SDS011;64615;32.062;34.834;2022-12-29T18:02:30;16.60;;;8.98;;
75937;SDS011;64615;32.062;34.834;2022-12-29T18:05:28;17.05;;;8.60;;
75937;SDS011;64615;32.062;34.834;2022-12-29T18:08:20;23.05;;;9.07;;
75937;SDS011;64615;32.062;34.834;2022-12-29T18:11:29;21.63;;;9.68;;
75937;SDS011;64615;32.062;34.834;2022-12-29T18:14:20;19.25;;;9.73;;
75937;SDS011;64615;32.062;34.834;2022-12-29T18:17:11;20.45;;;9.45;;
75937;SDS011;64615;32.062;34.834;2022-12-29T18:20:02;19.52;;;8.90;;
75937;SDS011;64615;32.062;34.834;2022-12-29T18:22:53;24.17;;;9.52;;
75937;SDS011;64615;32.062;34.834;2022-12-29T18:25:52;18.65;;;9.10;;
75937;SDS011;64615;32.062;34.834;2022-12-29T18:28:45;17.08;;;9.23;;
75937;SDS011;64615;32.062;34.834;2022-12-29T18:49:11;16.27;;;7.97;;
75937;SDS011;64615;32.062;34.834;2022-12-29T18:51:36;17.98;;;7.88;;
75937;SDS011;64615;32.062;34.834;2022-12-29T18:54:02;18.45;;;8.23;;
75937;SDS011;64615;32.062;34.834;2022-12-29T18:56:28;19.38;;;8.88;;
75937;SDS011;64615;32.062;34.834;2022-12-29T18:58:54;21.63;;;8.80;;
75937;SDS011;64615;32.062;34.834;2022-12-29T19:01:21;21.77;;;8.15;;
75937;SDS011;64615;32.062;34.834;2022-12-29T19:06:14;15.63;;;8.05;;
75937;SDS011;64615;32.062;34.834;2022-12-29T19:08:40;13.80;;;7.80;;
75937;SDS011;64615;32.062;34.834;2022-12-29T19:11:06;20.35;;;8.10;;
75937;SDS011;64615;32.062;34.834;2022-12-29T19:13:31;16.20;;;8.40;;
75937;SDS011;64615;32.062;34.834;2022-12-29T19:15:58;18.33;;;7.93;;
75937;SDS011;64615;32.062;34.834;2022-12-29T19:18:24;17.08;;;7.90;;
75937;SDS011;64615;32.062;34.834;2022-12-29T19:20:52;19.90;;;7.82;;
75937;SDS011;64615;32.062;34.834;2022-12-29T19:23:20;16.30;;;7.10;;
75937;SDS011;64615;32.062;34.834;2022-12-29T19:28:23;17.20;;;7.40;;
75937;SDS011;64615;32.062;34.834;2022-12-29T19:30:51;16.88;;;7.20;;
75937;SDS011;64615;32.062;34.834;2022-12-29T19:33:19;18.05;;;6.57;;
75937;SDS011;64615;32.062;34.834;2022-12-29T19:35:45;13.68;;;6.93;;
75937;SDS011;64615;32.062;34.834;2022-12-29T19:38:12;16.23;;;6.82;;
75937;SDS011;64615;32.062;34.834;2022-12-29T19:40:42;12.93;;;7.25;;
75937;SDS011;64615;32.062;34.834;2022-12-29T19:43:10;14.43;;;8.00;;
75937;SDS011;64615;32.062;34.834;2022-12-29T19:45:37;13.95;;;7.75;;
75937;SDS011;64615;32.062;34.834;2022-12-29T20:35:37;13.88;;;6.32;;
75937;SDS011;64615;32.062;34.834;2022-12-29T20:38:03;12.88;;;6.75;;
75937;SDS011;64615;32.062;34.834;2022-12-29T20:40:30;14.85;;;6.65;;
75937;SDS011;64615;32.062;34.834;2022-12-29T20:42:56;13.50;;;6.38;;
75937;SDS011;64615;32.062;34.834;2022-12-29T20:45:21;15.30;;;6.78;;
75937;SDS011;64615;32.062;34.834;2022-12-29T20:47:47;16.52;;;6.15;;
75937;SDS011;64615;32.062;34.834;2022-12-29T20:50:13;14.68;;;6.95;;
75937;SDS011;64615;32.062;34.834;2022-12-29T20:52:39;15.95;;;7.22;;
75937;SDS011;64615;32.062;34.834;2022-12-29T20:55:05;17.05;;;6.97;;
75937;SDS011;64615;32.062;34.834;2022-12-29T20:57:31;17.10;;;7.07;;
75937;SDS011;64615;32.062;34.834;2022-12-29T20:59:56;15.02;;;6.72;;
75937;SDS011;64615;32.062;34.834;2022-12-29T21:02:22;15.07;;;6.85;;
75937;SDS011;64615;32.062;34.834;2022-12-29T21:04:47;12.15;;;6.00;;
75937;SDS011;64615;32.062;34.834;2022-12-29T21:07:13;14.52;;;6.32;;
75937;SDS011;64615;32.062;34.834;2022-12-29T21:09:39;12.80;;;5.95;;
75937;SDS011;64615;32.062;34.834;2022-12-29T21:12:05;12.45;;;5.80;;
75937;SDS011;64615;32.062;34.834;2022-12-29T21:14:30;13.05;;;6.28;;
75937;SDS011;64615;32.062;34.834;2022-12-29T21:16:56;15.48;;;6.68;;
75937;SDS011;64615;32.062;34.834;2022-12-29T21:19:21;13.20;;;5.97;;
75937;SDS011;64615;32.062;34.834;2022-12-29T21:21:47;13.57;;;6.10;;
75937;SDS011;64615;32.062;34.834;2022-12-29T21:24:13;11.45;;;5.78;;
75937;SDS011;64615;32.062;34.834;2022-12-29T21:26:39;13.30;;;6.00;;
75937;SDS011;64615;32.062;34.834;2022-12-29T21:29:04;11.35;;;5.40;;
75937;SDS011;64615;32.062;34.834;2022-12-29T21:31:33;12.43;;;5.78;;
75937;SDS011;64615;32.062;34.834;2022-12-29T21:54:28;12.93;;;5.68;;
75937;SDS011;64615;32.062;34.834;2022-12-29T21:57:14;11.75;;;5.97;;
75937;SDS011;64615;32.062;34.834;2022-12-29T22:00:00;10.23;;;5.15;;
75937;SDS011;64615;32.062;34.834;2022-12-29T22:02:45;14.88;;;5.13;;
75937;SDS011;64615;32.062;34.834;2022-12-29T22:05:29;11.85;;;5.50;;
75937;SDS011;64615;32.062;34.834;2022-12-29T22:08:13;13.80;;;5.60;;
75937;SDS011;64615;32.062;34.834;2022-12-29T22:10:57;11.65;;;5.40;;
75937;SDS011;64615;32.062;34.834;2022-12-29T22:13:41;13.98;;;5.72;;
75937;SDS011;64615;32.062;34.834;2022-12-29T22:16:10;13.50;;;5.65;;
75937;SDS011;64615;32.062;34.834;2022-12-29T22:18:36;11.70;;;5.57;;
75937;SDS011;64615;32.062;34.834;2022-12-29T22:21:03;10.60;;;5.30;;
75937;SDS011;64615;32.062;34.834;2022-12-29T22:23:33;11.20;;;5.88;;
75937;SDS011;64615;32.062;34.834;2022-12-29T22:26:07;9.95;;;5.07;;
75937;SDS011;64615;32.062;34.834;2022-12-29T22:28:35;12.00;;;5.47;;
75937;SDS011;64615;32.062;34.834;2022-12-29T22:31:06;11.05;;;5.00;;
75937;SDS011;64615;32.062;34.834;2022-12-29T22:33:44;10.27;;;5.28;;
75937;SDS011;64615;32.062;34.834;2022-12-29T22:36:10;11.98;;;5.65;;
75937;SDS011;64615;32.062;34.834;2022-12-29T22:38:35;12.15;;;5.82;;
75937;SDS011;64615;32.062;34.834;2022-12-29T22:41:01;12.82;;;5.47;;
